createdAt,value
2023-02-22T00:03:17.817Z,35.70
2023-02-22T00:08:23.027Z,38.80
2023-02-22T00:13:28.492Z,33.90
2023-02-22T00:18:31.861Z,36.50
2023-02-22T00:23:35.184Z,42.60
2023-02-22T00:28:38.908Z,32.60
2023-02-22T00:33:44.049Z,29.10
2023-02-22T00:38:47.582Z,38.20
2023-02-22T00:43:51.786Z,29.80
2023-02-22T00:48:56.068Z,37.80
2023-02-22T00:53:59.486Z,39.70
2023-02-22T00:59:03.192Z,30.80
2023-02-22T01:04:06.660Z,32.10
2023-02-22T01:09:10.114Z,31.20
2023-02-22T01:14:13.654Z,38.30
2023-02-22T01:19:18.453Z,34.60
2023-02-22T01:24:21.871Z,33.40
2023-02-22T01:29:25.318Z,34.40
2023-02-22T01:34:29.583Z,36.80
2023-02-22T01:39:33.142Z,36.30
2023-02-22T01:44:39.579Z,39.20
2023-02-22T01:49:47.271Z,33.20
2023-02-22T01:54:55.722Z,51.50
2023-02-22T02:00:09.680Z,42.00
2023-02-22T02:05:17.185Z,42.70
2023-02-22T02:10:23.713Z,45.10
2023-02-22T02:15:30.455Z,42.30
2023-02-22T02:20:45.244Z,45.90
2023-02-22T02:26:28.908Z,47.00
2023-02-22T02:31:52.523Z,47.70
2023-02-22T02:37:02.254Z,42.40
2023-02-22T02:42:12.287Z,50.80
2023-02-22T02:47:24.686Z,41.90
2023-02-22T02:52:31.123Z,42.50
2023-02-22T02:57:34.554Z,36.50
2023-02-22T03:02:50.424Z,34.90
2023-02-22T03:08:03.955Z,29.20
2023-02-22T03:13:13.952Z,46.50
2023-02-22T03:18:24.831Z,40.90
2023-02-22T03:23:35.222Z,36.60
2023-02-22T03:28:40.468Z,42.50
2023-02-22T03:33:49.532Z,37.10
2023-02-22T03:38:57.234Z,43.40
2023-02-22T03:44:04.846Z,41.30
2023-02-22T03:49:14.268Z,35.80
2023-02-22T03:54:19.112Z,35.20
2023-02-22T03:59:26.942Z,42.30
2023-02-22T04:04:31.018Z,33.30
2023-02-22T04:09:35.501Z,31.00
2023-02-22T04:14:40.142Z,37.60
2023-02-22T04:19:45.205Z,39.50
2023-02-22T04:24:49.905Z,46.70
2023-02-22T04:29:54.474Z,40.00
2023-02-22T04:34:58.370Z,43.90
2023-02-22T04:40:06.726Z,41.90
2023-02-22T04:45:12.271Z,39.50
2023-02-22T04:50:17.300Z,86.70
2023-02-22T04:55:23.299Z,65.90
2023-02-22T05:00:27.261Z,46.90
2023-02-22T05:05:35.805Z,48.80
2023-02-22T05:10:39.322Z,55.50
2023-02-22T05:15:42.642Z,140.90
2023-02-22T05:20:46.017Z,63.30
2023-02-22T05:25:49.588Z,54.90
2023-02-22T05:30:53.055Z,63.50
2023-02-22T05:35:56.752Z,46.20
2023-02-22T05:41:00.351Z,45.50
2023-02-22T05:46:03.931Z,49.30
2023-02-22T05:51:09.028Z,46.70
2023-02-22T05:56:12.462Z,46.90
2023-02-22T06:01:16.392Z,62.40
2023-02-22T06:06:22.189Z,56.50
2023-02-22T06:11:26.026Z,41.10
2023-02-22T06:16:31.279Z,58.30
2023-02-22T06:21:34.748Z,51.70
2023-02-22T06:26:38.244Z,58.70
2023-02-22T06:31:41.781Z,57.50
2023-02-22T06:36:47.446Z,55.10
2023-02-22T06:41:50.935Z,67.00
2023-02-22T06:46:55.690Z,42.20
2023-02-22T06:51:59.153Z,50.90
2023-02-22T06:57:02.756Z,50.20
2023-02-22T07:02:06.315Z,61.40
2023-02-22T07:07:10.133Z,59.80
2023-02-22T07:12:13.806Z,60.70
2023-02-22T07:17:17.267Z,56.50
2023-02-22T07:22:20.856Z,60.30
2023-02-22T07:27:24.308Z,64.00
2023-02-22T07:32:27.980Z,66.70
2023-02-22T07:37:31.651Z,72.00
2023-02-22T07:42:49.700Z,67.30
2023-02-22T07:47:53.345Z,59.80
2023-02-22T07:52:58.854Z,66.00
2023-02-22T07:58:03.937Z,60.70
2023-02-22T08:03:09.976Z,61.00
2023-02-22T08:08:16.286Z,43.50
2023-02-22T08:13:22.025Z,42.00
2023-02-22T08:18:26.304Z,50.50
2023-02-22T08:23:31.096Z,40.60
2023-02-22T08:28:35.208Z,47.90
2023-02-22T08:33:38.681Z,35.70
2023-02-22T08:38:42.162Z,54.40
2023-02-22T08:43:45.825Z,30.60
2023-02-22T08:48:53.279Z,32.70
2023-02-22T08:53:57.319Z,43.10
2023-02-22T08:59:01.941Z,35.20
2023-02-22T09:04:05.570Z,31.30
2023-02-22T09:09:09.023Z,44.00
2023-02-22T09:14:13.850Z,46.00
2023-02-22T09:19:17.210Z,36.00
2023-02-22T09:24:20.721Z,37.80
2023-02-22T09:29:25.900Z,27.50
2023-02-22T09:34:29.355Z,37.70
2023-02-22T09:39:36.890Z,36.10
2023-02-22T09:44:47.960Z,35.00
2023-02-22T09:50:01.791Z,34.80
2023-02-22T09:55:10.411Z,33.30
2023-02-22T10:00:19.703Z,48.90
2023-02-22T10:05:29.086Z,32.60
2023-02-22T10:10:35.755Z,45.40
2023-02-22T10:15:48.314Z,38.10
2023-02-22T10:20:56.742Z,30.10
2023-02-22T10:26:13.477Z,36.60
2023-02-22T10:31:23.052Z,36.50
2023-02-22T10:36:27.079Z,33.00
2023-02-22T10:41:32.681Z,30.80
2023-02-22T10:46:36.860Z,31.90
2023-02-22T10:51:40.223Z,33.60
2023-02-22T10:56:50.161Z,28.80
2023-02-22T11:01:53.700Z,23.30
2023-02-22T11:07:17.879Z,21.90
2023-02-22T11:12:28.339Z,26.10
2023-02-22T11:17:33.916Z,26.70
2023-02-22T11:22:41.728Z,22.50
2023-02-22T11:27:46.547Z,15.50
2023-02-22T11:32:55.932Z,19.50
2023-02-22T11:38:15.689Z,64.10
2023-02-22T11:43:20.266Z,26.50
2023-02-22T11:48:23.637Z,18.20
2023-02-22T11:53:44.513Z,21.40
2023-02-22T11:58:55.048Z,24.20
2023-02-22T12:04:23.634Z,17.20
2023-02-22T12:09:37.629Z,22.60
2023-02-22T12:14:59.096Z,25.40
2023-02-22T12:25:20.255Z,28.50
2023-02-22T12:30:28.164Z,14.40
2023-02-22T12:35:34.754Z,29.20
2023-02-22T12:40:46.162Z,19.90
2023-02-22T12:51:02.028Z,17.40
2023-02-22T12:56:20.082Z,18.00
2023-02-22T13:01:29.381Z,16.50
2023-02-22T13:06:44.639Z,20.50
2023-02-22T13:11:59.477Z,21.10
2023-02-22T13:17:14.531Z,26.60
2023-02-22T13:22:25.477Z,17.50
2023-02-22T13:27:37.057Z,19.50
2023-02-22T13:32:57.039Z,22.30
2023-02-22T13:38:28.679Z,17.80
2023-02-22T13:43:51.034Z,17.00
2023-02-22T13:49:27.776Z,22.90
2023-02-22T13:54:39.540Z,20.30
2023-02-22T13:59:42.920Z,14.50
2023-02-22T14:04:46.300Z,21.30
2023-02-22T14:09:51.988Z,21.30
2023-02-22T14:15:29.099Z,20.70
2023-02-22T14:20:35.528Z,18.20
2023-02-22T14:25:41.823Z,16.00
2023-02-22T14:30:45.297Z,13.60
2023-02-22T14:35:50.970Z,14.30
2023-02-22T14:40:58.339Z,20.00
2023-02-22T14:46:04.608Z,20.60
2023-02-22T14:51:22.632Z,16.20
2023-02-22T14:56:35.573Z,17.80
2023-02-22T15:01:50.791Z,15.30
2023-02-22T15:07:19.150Z,17.90
2023-02-22T15:12:29.243Z,19.00
2023-02-22T15:17:32.728Z,25.40
2023-02-22T15:22:37.250Z,16.90
2023-02-22T15:27:46.272Z,16.20
2023-02-22T15:33:03.275Z,13.40
2023-02-22T15:38:19.753Z,23.20
2023-02-22T15:43:27.847Z,24.80
2023-02-22T15:48:32.593Z,19.30
2023-02-22T15:53:40.571Z,23.90
2023-02-22T15:58:46.474Z,23.60
2023-02-22T16:03:53.888Z,23.20
2023-02-22T16:08:59.367Z,21.50
2023-02-22T16:14:05.329Z,23.60
2023-02-22T16:19:32.269Z,35.30
2023-02-22T16:24:36.976Z,29.10
2023-02-22T16:29:40.638Z,25.60
2023-02-22T16:34:43.990Z,24.00
2023-02-22T16:39:51.114Z,26.40
2023-02-22T16:44:54.539Z,32.90
2023-02-22T16:50:00.614Z,30.00
2023-02-22T16:55:05.271Z,29.30
2023-02-22T17:00:14.834Z,36.20
2023-02-22T17:05:18.292Z,30.90
2023-02-22T17:10:22.163Z,28.70
2023-02-22T17:15:28.228Z,40.20
2023-02-22T17:20:31.985Z,33.30
2023-02-22T17:25:39.230Z,37.40
2023-02-22T17:30:44.574Z,32.20
2023-02-22T17:35:48.206Z,30.70
2023-02-22T17:40:51.704Z,35.20
2023-02-22T17:45:55.468Z,38.30
2023-02-22T17:50:58.861Z,36.50
2023-02-22T17:56:06.885Z,44.20
2023-02-22T18:01:21.289Z,38.70
2023-02-22T18:06:28.921Z,44.90
2023-02-22T18:11:32.321Z,44.40
2023-02-22T18:16:38.226Z,41.00
2023-02-22T18:21:41.606Z,38.70
2023-02-22T18:26:45.044Z,43.00
2023-02-22T18:31:48.445Z,40.70
2023-02-22T18:36:54.883Z,40.50
2023-02-22T18:42:00.494Z,40.00
2023-02-22T18:47:03.892Z,34.30
2023-02-22T18:52:09.840Z,55.60
2023-02-22T18:57:13.689Z,41.30
2023-02-22T19:02:19.910Z,32.90
2023-02-22T19:07:25.627Z,46.10
2023-02-22T19:12:31.026Z,32.90
2023-02-22T19:17:36.157Z,40.30
2023-02-22T19:22:39.631Z,39.80
2023-02-22T19:27:44.000Z,39.60
2023-02-22T19:32:47.441Z,44.30
2023-02-22T19:37:53.218Z,46.60
2023-02-22T19:42:57.530Z,42.10
2023-02-22T19:48:00.997Z,41.70
2023-02-22T19:53:05.049Z,45.20
2023-02-22T19:58:09.116Z,45.00
2023-02-22T20:03:14.932Z,40.50
2023-02-22T20:08:18.449Z,41.00
2023-02-22T20:13:21.963Z,43.50
2023-02-22T20:18:25.319Z,52.60
2023-02-22T20:23:28.669Z,44.00
2023-02-22T20:28:33.486Z,40.80
2023-02-22T20:33:41.069Z,38.40
2023-02-22T20:38:44.944Z,54.80
2023-02-22T20:43:51.261Z,39.40
2023-02-22T20:49:00.176Z,38.00
2023-02-22T20:54:04.157Z,47.40
2023-02-22T20:59:10.407Z,46.50
2023-02-22T21:04:14.023Z,49.30
2023-02-22T21:09:19.800Z,44.90
2023-02-22T21:14:24.482Z,52.80
2023-02-22T21:19:30.016Z,51.50
2023-02-22T21:24:36.074Z,57.90
2023-02-22T21:29:40.178Z,50.70
2023-02-22T21:34:43.523Z,66.60
2023-02-22T21:39:48.407Z,57.10
2023-02-22T21:44:55.651Z,66.30
2023-02-22T21:50:01.134Z,55.60
2023-02-22T21:55:05.709Z,61.60
2023-02-22T22:00:16.540Z,55.10
2023-02-22T22:05:31.186Z,59.60
2023-02-22T22:10:35.869Z,64.40
2023-02-22T22:15:39.439Z,53.60
2023-02-22T22:20:44.370Z,60.50
2023-02-22T22:25:50.534Z,54.50
2023-02-22T22:30:53.992Z,52.50
2023-02-22T22:35:58.223Z,54.50
2023-02-22T22:41:01.590Z,61.50
2023-02-22T22:46:07.324Z,57.80
2023-02-22T22:51:13.864Z,58.00
2023-02-22T22:56:19.410Z,56.20
2023-02-22T23:01:26.373Z,53.60
2023-02-22T23:06:32.138Z,52.30
2023-02-22T23:11:35.769Z,60.30
2023-02-22T23:16:39.819Z,60.80
2023-02-22T23:21:43.605Z,54.70
2023-02-22T23:26:48.210Z,63.10
2023-02-22T23:31:53.823Z,59.60
2023-02-22T23:36:57.288Z,60.30
2023-02-22T23:42:02.358Z,58.40
2023-02-22T23:47:05.740Z,56.40
2023-02-22T23:52:12.761Z,58.20
2023-02-22T23:57:16.993Z,58.90
